Identifiez vous afin de poster une observation
 • Tableaux des observations reportées par F4JFI - Page 1   

Tableaux des observations de F4JFI

F4JFI a posté 1285 observation(s).


Pages : 1 - 2 - 3 - 4 - 5 - 6 - 7 - 8 - 9 - 10 - 11 - 12 - 13 - 14 - 15 - 16 - 17 - 18 - 19 - 20 - 21 - 22 - 23 - 24 - 25 - 26 - 27 - 28 - 29 - 30 - 31 - 32 - 33 - 34 - 35 - 36 - 37 - 38 - 39 - 40 - 41 - 42 - 43 - 44 - 45 - 46 - 47 - 48 - 49 - 50 - 51 - 52 - 53 - 54 - 55 - 56 - 57 - 58 - 59 - 60 - 61 - 62 - 63 - 64 - 65 -

DateHeureVillePhénomènesCommentaireContact
09/08/202218:00Périgueux - Alt. 88mTempérature (35.9°C) Humidite : 23% Point de rosée : 11.54 C Pression : 1013 hPa Humidex : 37.9 2022-08-09 18:00:01F4JFI
09/08/202217:00Périgueux - Alt. 88mTempérature (35.2°C) Humidite : 25% Point de rosée : 12.22 C Pression : 1014 hPa Humidex : 37.6 2022-08-09 17:00:01F4JFI
09/08/202216:00Périgueux - Alt. 88mTempérature (34.7°C) Humidite : 25% Point de rosée : 11.79 C Pression : 1014 hPa Humidex : 36.9 2022-08-09 16:00:01F4JFI
09/08/202215:00Périgueux - Alt. 88mTempérature (33.8°C) Humidite : 32% Point de rosée : 14.81 C Pression : 1015 hPa Humidex : 37.7 2022-08-09 15:00:01F4JFI
09/08/202214:00Périgueux - Alt. 88mTempérature (31.7°C) Humidite : 32% Point de rosée : 12.99 C Pression : 1015 hPa Humidex : 34.5 2022-08-09 14:00:01F4JFI
09/08/202213:00Périgueux - Alt. 88mTempérature (29.8°C) Humidite : 42% Point de rosée : 15.51 C Pression : 1016 hPa Humidex : 34.1 2022-08-09 13:00:01F4JFI
09/08/202212:00Périgueux - Alt. 88mTempérature (27.9°C) Humidite : 42% Point de rosée : 13.81 C Pression : 1016 hPa Humidex : 31.2 2022-08-09 12:00:01F4JFI
09/08/202211:00Périgueux - Alt. 88mTempérature (25.4°C) Humidite : 45% Point de rosée : 12.61 C Pression : 1016 hPa Humidex : 28 2022-08-09 11:00:01F4JFI
09/08/202210:00Périgueux - Alt. 88mTempérature (22.9°C) Humidite : 51% Point de rosée : 12.23 C Pression : 1017 hPa Humidex : 25.3 2022-08-09 10:00:01F4JFI
09/08/202209:00Périgueux - Alt. 88mTempérature (20°C) Humidite : 61% Point de rosée : 12.25 C Pression : 1016 hPa Humidex : 22.4 2022-08-09 09:00:01F4JFI
09/08/202208:00Périgueux - Alt. 88mTempérature (16.6°C) Humidite : 72% Point de rosée : 11.53 C Pression : 1016 hPa Humidex : 18.6 2022-08-09 08:00:01F4JFI
09/08/202207:00Périgueux - Alt. 88mTempérature (16.7°C) Humidite : 70% Point de rosée : 11.20 C Pression : 1016 hPa Humidex : 18.6 2022-08-09 07:00:02F4JFI
09/08/202206:00Périgueux - Alt. 88mTempérature (17.8°C) Humidite : 68% Point de rosée : 11.81 C Pression : 1015 hPa Humidex : 20 2022-08-09 06:00:01F4JFI
09/08/202205:00Périgueux - Alt. 88mTempérature (18.8°C) Humidite : 63% Point de rosée : 11.61 C Pression : 1015 hPa Humidex : 20.9 2022-08-09 05:00:01F4JFI
09/08/202204:00Périgueux - Alt. 88mTempérature (19.7°C) Humidite : 60% Point de rosée : 11.72 C Pression : 1015 hPa Humidex : 21.8 2022-08-09 04:00:01F4JFI
09/08/202203:00Périgueux - Alt. 88mTempérature (21.6°C) Humidite : 54% Point de rosée : 11.90 C Pression : 1015 hPa Humidex : 23.8 2022-08-09 03:00:01F4JFI
09/08/202202:00Périgueux - Alt. 88mTempérature (21.7°C) Humidite : 55% Point de rosée : 12.27 C Pression : 1015 hPa Humidex : 24.1 2022-08-09 02:00:01F4JFI
09/08/202201:00Périgueux - Alt. 88mTempérature (23.3°C) Humidite : 49% Point de rosée : 11.99 C Pression : 1015 hPa Humidex : 25.6 2022-08-09 01:00:01F4JFI
09/08/202200:00Périgueux - Alt. 88mTempérature (24.2°C) Humidite : 47% Point de rosée : 12.18 C Pression : 1015 hPa Humidex : 26.6 2022-08-09 00:00:01F4JFI
08/08/202223:00Périgueux - Alt. 88mTempérature (27.1°C) Humidite : 38% Point de rosée : 11.56 C Pression : 1015 hPa Humidex : 29.1 2022-08-08 23:00:01F4JFI


Meteociel™ | © 2004 - 2022 | Forums Météo | Prévi Paris | Paramètres des cookies | Cookies | Média - Meteociel | Mentions légales | Contact